createdAt,value
2022-10-03T00:03:51.994Z,9.30
2022-10-03T00:09:16.457Z,9.32
2022-10-03T00:14:35.593Z,9.34
2022-10-03T00:19:54.170Z,9.36
2022-10-03T00:25:22.549Z,9.36
2022-10-03T00:30:44.529Z,9.37
2022-10-03T00:36:03.157Z,9.34
2022-10-03T00:41:53.999Z,9.31
2022-10-03T00:47:19.083Z,9.26
2022-10-03T00:52:42.594Z,9.22
2022-10-03T00:58:16.740Z,9.19
2022-10-03T01:03:36.818Z,9.18
2022-10-03T01:08:58.289Z,9.16
2022-10-03T01:14:24.683Z,9.13
2022-10-03T01:20:01.267Z,9.13
2022-10-03T01:25:20.536Z,9.12
2022-10-03T01:30:28.573Z,9.06
2022-10-03T01:35:46.307Z,9.00
2022-10-03T01:41:03.348Z,8.99
2022-10-03T01:46:18.471Z,9.00
2022-10-03T01:51:31.490Z,9.00
2022-10-03T01:56:46.172Z,9.03
2022-10-03T02:02:01.615Z,9.05
2022-10-03T02:07:21.727Z,9.05
2022-10-03T02:12:35.389Z,9.07
2022-10-03T02:17:55.635Z,9.15
2022-10-03T02:23:03.135Z,9.21
2022-10-03T02:28:47.080Z,9.24
2022-10-03T02:34:17.438Z,9.27
2022-10-03T02:40:11.310Z,9.27
2022-10-03T02:45:41.316Z,9.28
2022-10-03T02:51:24.222Z,9.29
2022-10-03T02:56:59.841Z,9.29
2022-10-03T03:02:36.388Z,9.26
2022-10-03T03:08:18.734Z,9.22
2022-10-03T03:14:02.984Z,9.20
2022-10-03T03:19:26.677Z,9.18
2022-10-03T03:24:49.935Z,9.18
2022-10-03T03:30:06.864Z,9.21
2022-10-03T03:35:24.217Z,9.23
2022-10-03T03:40:34.696Z,9.24
2022-10-03T03:45:54.807Z,9.25
2022-10-03T03:51:22.446Z,9.26
2022-10-03T03:56:49.376Z,9.27
2022-10-03T04:02:09.401Z,9.30
2022-10-03T04:07:28.392Z,9.31
2022-10-03T04:12:50.586Z,9.32
2022-10-03T04:18:42.345Z,9.35
2022-10-03T04:24:01.640Z,9.39
2022-10-03T04:29:32.174Z,9.41
2022-10-03T04:34:51.956Z,9.45
2022-10-03T04:40:18.835Z,9.50
2022-10-03T04:45:46.783Z,9.53
2022-10-03T04:51:06.424Z,9.55
2022-10-03T04:56:40.012Z,9.57
2022-10-03T05:01:54.639Z,9.59
2022-10-03T05:07:17.610Z,9.62
2022-10-03T05:12:46.924Z,9.63
2022-10-03T05:18:03.463Z,9.66
2022-10-03T05:23:24.831Z,9.68
2022-10-03T05:28:45.694Z,9.69
2022-10-03T05:34:02.917Z,9.72
2022-10-03T05:39:31.940Z,9.74
2022-10-03T05:44:44.881Z,9.74
2022-10-03T05:50:32.178Z,9.75
2022-10-03T05:55:54.893Z,9.73
2022-10-03T06:01:30.034Z,9.70
2022-10-03T06:06:52.275Z,9.71
2022-10-03T06:12:08.387Z,9.72
2022-10-03T06:17:43.371Z,9.75
2022-10-03T06:23:22.516Z,9.78
2022-10-03T06:29:03.274Z,9.82
2022-10-03T06:34:31.512Z,9.87
2022-10-03T06:40:15.998Z,9.88
2022-10-03T06:45:57.012Z,9.90
2022-10-03T06:51:30.647Z,9.94
2022-10-03T06:57:06.569Z,10.01
2022-10-03T07:03:05.644Z,10.03
2022-10-03T07:08:27.718Z,9.98
2022-10-03T07:14:10.005Z,9.93
2022-10-03T07:19:34.388Z,9.86
2022-10-03T07:25:15.172Z,9.80
2022-10-03T07:30:23.936Z,9.78
2022-10-03T07:36:13.438Z,9.72
2022-10-03T07:41:37.014Z,9.62
2022-10-03T07:47:12.608Z,9.53
2022-10-03T07:53:01.358Z,9.48
2022-10-03T07:58:28.066Z,9.51
2022-10-03T08:04:15.389Z,9.52
2022-10-03T08:09:51.673Z,9.56
2022-10-03T08:15:07.492Z,9.60
2022-10-03T08:20:37.428Z,9.61
2022-10-03T08:26:03.946Z,9.58
2022-10-03T08:31:32.295Z,9.58
2022-10-03T08:37:09.240Z,9.56
2022-10-03T08:42:51.105Z,9.51
2022-10-03T08:48:32.774Z,9.52
2022-10-03T08:54:20.148Z,9.56
2022-10-03T09:00:06.209Z,9.62
2022-10-03T09:06:02.920Z,9.73
2022-10-03T09:11:36.954Z,9.87
2022-10-03T09:17:07.305Z,10.02
2022-10-03T09:22:35.100Z,10.19
2022-10-03T09:27:56.194Z,10.26
2022-10-03T09:33:44.993Z,10.23
2022-10-03T09:39:21.740Z,10.14
2022-10-03T09:45:01.664Z,10.15
2022-10-03T09:50:39.955Z,10.18
2022-10-03T09:56:16.409Z,10.21
2022-10-03T10:01:32.293Z,10.24
2022-10-03T10:07:03.222Z,10.26
2022-10-03T10:12:35.475Z,10.27
2022-10-03T10:18:12.625Z,10.25
2022-10-03T10:23:42.775Z,10.23
2022-10-03T10:29:17.565Z,10.17
2022-10-03T10:35:04.345Z,10.14
2022-10-03T10:40:47.191Z,10.13
2022-10-03T10:46:31.074Z,10.09
2022-10-03T10:52:21.439Z,10.08
2022-10-03T10:58:06.350Z,10.06
2022-10-03T11:03:57.221Z,10.01
2022-10-03T11:09:35.734Z,9.97
2022-10-03T11:15:20.194Z,9.96
2022-10-03T11:21:16.262Z,9.95
2022-10-03T11:26:50.285Z,9.93
2022-10-03T11:32:35.209Z,9.93
2022-10-03T11:37:48.606Z,9.91
2022-10-03T11:43:08.808Z,9.92
2022-10-03T11:48:34.456Z,9.93
2022-10-03T11:54:03.618Z,9.93
2022-10-03T11:59:46.439Z,9.96
2022-10-03T12:05:06.835Z,10.04
2022-10-03T12:10:25.327Z,10.15
2022-10-03T12:15:39.584Z,10.25
2022-10-03T12:21:20.988Z,10.32
2022-10-03T12:26:41.486Z,10.40
2022-10-03T12:32:02.857Z,10.51
2022-10-03T12:37:37.046Z,10.64
2022-10-03T12:43:00.255Z,10.76
2022-10-03T12:48:28.181Z,10.87
2022-10-03T12:53:50.284Z,10.90
2022-10-03T12:59:18.043Z,10.93
2022-10-03T13:04:40.161Z,10.98
2022-10-03T13:10:12.893Z,10.99
2022-10-03T13:15:53.858Z,10.98
2022-10-03T13:21:21.435Z,10.97
2022-10-03T13:26:51.751Z,11.01
2022-10-03T13:32:18.432Z,11.03
2022-10-03T13:37:34.034Z,11.03
2022-10-03T13:42:47.404Z,11.01
2022-10-03T13:48:02.637Z,11.04
2022-10-03T13:53:15.472Z,11.08
2022-10-03T13:58:44.227Z,11.11
2022-10-03T14:04:08.767Z,11.17
2022-10-03T14:09:39.335Z,11.19
2022-10-03T14:14:58.635Z,11.18
2022-10-03T14:20:20.373Z,11.18
2022-10-03T14:25:30.477Z,11.18
2022-10-03T14:31:05.670Z,11.18
2022-10-03T14:36:26.801Z,11.17
2022-10-03T14:41:46.400Z,11.17
2022-10-03T14:46:59.540Z,11.22
2022-10-03T14:52:10.884Z,11.32
2022-10-03T14:57:26.832Z,11.41
2022-10-03T15:02:37.907Z,11.42
2022-10-03T15:07:48.499Z,11.40
2022-10-03T15:12:59.001Z,11.40
2022-10-03T15:18:10.026Z,11.37
2022-10-03T15:23:26.696Z,11.31
2022-10-03T15:28:43.322Z,11.28
2022-10-03T15:33:56.109Z,11.30
2022-10-03T15:39:06.651Z,11.28
2022-10-03T15:44:24.663Z,11.19
2022-10-03T15:49:37.950Z,11.13
2022-10-03T15:54:56.950Z,11.07
2022-10-03T16:00:24.796Z,10.96
2022-10-03T16:05:32.817Z,10.87
2022-10-03T16:10:45.460Z,10.79
2022-10-03T16:16:05.789Z,10.70
2022-10-03T16:21:17.995Z,10.63
2022-10-03T16:26:28.942Z,10.58
2022-10-03T16:31:42.026Z,10.53
2022-10-03T16:36:59.624Z,10.51
2022-10-03T16:42:17.790Z,10.50
2022-10-03T16:47:34.898Z,10.46
2022-10-03T16:52:42.126Z,10.37
2022-10-03T16:57:57.095Z,10.28
2022-10-03T17:03:17.757Z,10.22
2022-10-03T17:08:41.277Z,10.17
2022-10-03T17:13:52.535Z,10.12
2022-10-03T17:19:17.676Z,10.11
2022-10-03T17:24:47.431Z,10.12
2022-10-03T17:30:00.927Z,10.13
2022-10-03T17:35:15.729Z,10.13
2022-10-03T17:40:31.827Z,10.09
2022-10-03T17:45:46.075Z,10.09
2022-10-03T17:51:03.953Z,10.10
2022-10-03T17:56:15.203Z,10.09
2022-10-03T18:01:30.835Z,10.09
2022-10-03T18:06:53.628Z,10.08
2022-10-03T18:12:17.104Z,10.08
2022-10-03T18:17:35.482Z,10.09
2022-10-03T18:22:49.383Z,10.08
2022-10-03T18:28:20.606Z,10.10
2022-10-03T18:33:33.568Z,10.12
2022-10-03T18:38:45.751Z,10.12
2022-10-03T18:44:00.398Z,10.14
2022-10-03T18:49:35.119Z,10.13
2022-10-03T18:55:03.013Z,10.12
2022-10-03T19:00:19.745Z,10.09
2022-10-03T19:05:32.018Z,9.96
2022-10-03T19:10:43.975Z,9.78
2022-10-03T19:16:21.386Z,9.57
2022-10-03T19:21:29.528Z,9.38
2022-10-03T19:26:38.771Z,9.28
2022-10-03T19:31:57.490Z,9.20
2022-10-03T19:37:08.459Z,9.09
2022-10-03T19:42:30.951Z,9.01
2022-10-03T19:47:46.941Z,8.97
2022-10-03T19:52:55.241Z,8.92
2022-10-03T19:58:05.952Z,8.95
2022-10-03T20:03:23.489Z,9.03
2022-10-03T20:08:38.486Z,9.13
2022-10-03T20:13:48.084Z,9.21
2022-10-03T20:19:01.700Z,9.26
2022-10-03T20:24:20.120Z,9.30
2022-10-03T20:29:32.277Z,9.33
2022-10-03T20:34:42.151Z,9.34
2022-10-03T20:39:53.235Z,9.36
2022-10-03T20:45:08.130Z,9.40
2022-10-03T20:50:24.954Z,9.44
2022-10-03T20:55:37.579Z,9.48
2022-10-03T21:00:49.635Z,9.51
2022-10-03T21:05:59.552Z,9.54
2022-10-03T21:11:19.960Z,9.56
2022-10-03T21:16:31.658Z,9.57
2022-10-03T21:21:43.545Z,9.52
2022-10-03T21:26:59.070Z,9.46
2022-10-03T21:32:25.408Z,9.41
2022-10-03T21:37:43.825Z,9.35
2022-10-03T21:43:01.420Z,9.35
2022-10-03T21:48:18.211Z,9.33
2022-10-03T21:53:40.034Z,9.30
2022-10-03T21:59:12.584Z,9.29
2022-10-03T22:04:29.682Z,9.28
2022-10-03T22:09:45.093Z,9.26
2022-10-03T22:15:00.648Z,9.27
2022-10-03T22:20:17.534Z,9.26
2022-10-03T22:25:40.460Z,9.26
2022-10-03T22:30:58.034Z,9.23
2022-10-03T22:36:09.438Z,9.24
2022-10-03T22:41:21.413Z,9.24
2022-10-03T22:46:32.551Z,9.24
2022-10-03T22:51:41.959Z,9.24
2022-10-03T22:56:54.189Z,9.23
2022-10-03T23:02:09.069Z,9.20
2022-10-03T23:07:31.005Z,9.20
2022-10-03T23:12:42.873Z,9.20
2022-10-03T23:18:02.783Z,9.20
2022-10-03T23:23:16.664Z,9.18
2022-10-03T23:28:31.600Z,9.17
2022-10-03T23:33:53.801Z,9.14
2022-10-03T23:39:03.877Z,9.13
2022-10-03T23:44:30.667Z,9.15
2022-10-03T23:49:40.126Z,9.20
2022-10-03T23:54:49.455Z,9.21
2022-10-03T23:59:57.159Z,9.22
